Historique des mesures à Cassis (13260), France
Quotidien Résumé Fevrier 4, 2018 Unités:  Métrique/US    US   Métrique
« Précédent (Jour)
Suivant (Jour) »
Quotidien Hebdomadaire Mensuel Annuel Période au choix
  Maximum: Minimum: Moyenne:
Température: 32 °F /  TemperatureC °C 39.2 °F /  4.0 °C 45.3 °F /  7.4 °C
Point de rosée: 32 °F /  DewpointC °C 25.5 °F /  -3.6 °C 30.7 °F /  -0.7 °C
Humidité: Humidity % 48 % 53 %
Vitesse du vent: WindSpeedKMH mph /  0 km/h - 1.4 mph /  2.3 km/h
Rafales: WindSpeedGustKMH mph /  0 km/h - -
Vent:- - ESE
Pression: 0 in /  PressurehPa hPa 29.7 in /  1005.3 hPa -
Précipitations: 0 in /  0.0 mm    
Historical Graphs
 
 
Mesures pour : Fevrier 4, 2018
Heure Temperature Point de rosée Pression Vent Vitesse du vent Rafales Humidité Pluie (par heure) Conditions
32 °F /  TemperatureC °C 32 °F /  DewpointC °C 0 in /  PressurehPa hPa Calm     Humidity % 0 in /  HourlyPrecipMM mm SoftwareType W/m2
00:12 43.2 °F /  6.2 °C 27.1 °F /  -2.7 °C 29.7 in /  1005.3 hPa North 7.6 mph /  12.2 km/h 7.6 mph /  12.2 km/h 53 % 0 in /  0.0 mm open2300-1.11 W/m2
01:12 43 °F /  6.1 °C 26.4 °F /  -3.1 °C 29.7 in /  1006.0 hPa Calm     52 % 0 in /  0.0 mm open2300-1.11 W/m2
02:12 41.9 °F /  5.5 °C 26.8 °F /  -2.9 °C 29.7 in /  1006.0 hPa Calm     55 % 0 in /  0.0 mm open2300-1.11 W/m2
03:12 41.7 °F /  5.4 °C 26.2 °F /  -3.2 °C 29.7 in /  1006.0 hPa NNW 1.4 mph /  2.3 km/h 1.4 mph /  2.3 km/h 54 % 0 in /  0.0 mm open2300-1.11 W/m2
04:12 42.1 °F /  5.6 °C 25.7 °F /  -3.5 °C 29.7 in /  1006.3 hPa Calm     52 % 0 in /  0.0 mm open2300-1.11 W/m2
05:12 40.6 °F /  4.8 °C 26.1 °F /  -3.3 °C 29.7 in /  1007.0 hPa Calm   2.9 mph /  4.7 km/h 56 % 0 in /  0.0 mm open2300-1.11 W/m2
06:12 41.5 °F /  5.3 °C 26.1 °F /  -3.3 °C 29.7 in /  1007.0 hPa Calm   2.6 mph /  4.2 km/h 54 % 0 in /  0.0 mm open2300-1.11 W/m2
07:12 39.6 °F /  4.2 °C 25.9 °F /  -3.4 °C 29.8 in /  1007.7 hPa Calm     58 % 0 in /  0.0 mm open2300-1.11 W/m2
08:12 39.2 °F /  4.0 °C 25.5 °F /  -3.6 °C 29.8 in /  1008.4 hPa Calm     58 % 0 in /  0.0 mm open2300-1.11 W/m2
09:12 43 °F /  6.1 °C 27.9 °F /  -2.3 °C 29.8 in /  1008.7 hPa ESE 2.6 mph /  4.2 km/h 2.6 mph /  4.2 km/h 55 % 0 in /  0.0 mm open2300-1.11 W/m2
10:12 44.6 °F /  7.0 °C 27.1 °F /  -2.7 °C 29.8 in /  1009.4 hPa NNE 3.2 mph /  5.1 km/h 6.8 mph /  10.9 km/h 50 % 0 in /  0.0 mm open2300-1.11 W/m2
12:12 49.6 °F /  9.8 °C 30.7 °F /  -0.7 °C 29.8 in /  1009.7 hPa NE 4.3 mph /  6.9 km/h 4.3 mph /  6.9 km/h 48 % 0 in /  0.0 mm open2300-1.11 W/m2
13:12 51.6 °F /  10.9 °C 33.6 °F /  0.9 °C 29.8 in /  1009.4 hPa SW 11.9 mph /  19.2 km/h 11.9 mph /  19.2 km/h 50 % 0 in /  0.0 mm open2300-1.11 W/m2
14:12 52 °F /  11.1 °C 34.3 °F /  1.3 °C 29.8 in /  1009.0 hPa Calm   3.2 mph /  5.1 km/h 51 % 0 in /  0.0 mm open2300-1.11 W/m2
15:12 51.6 °F /  10.9 °C 34.5 °F /  1.4 °C 29.8 in /  1009.4 hPa Calm   7.2 mph /  11.6 km/h 52 % 0 in /  0.0 mm open2300-1.11 W/m2
16:12 51.6 °F /  10.9 °C 34.5 °F /  1.4 °C 29.8 in /  1009.4 hPa ESE 1.8 mph /  2.9 km/h 1.8 mph /  2.9 km/h 52 % 0 in /  0.0 mm open2300-1.11 W/m2
17:12 50.9 °F /  10.5 °C 34.9 °F /  1.6 °C 29.8 in /  1009.7 hPa Calm     54 % 0 in /  0.0 mm open2300-1.11 W/m2
18:12 48.6 °F /  9.2 °C 34.9 °F /  1.6 °C 29.8 in /  1010.0 hPa Calm     59 % 0 in /  0.0 mm open2300-1.11 W/m2
19:12 47.5 °F /  8.6 °C 34.7 °F /  1.5 °C 29.8 in /  1010.7 hPa Calm     61 % 0 in /  0.0 mm open2300-1.11 W/m2
20:12 46.9 °F /  8.3 °C 34.2 °F /  1.2 °C 29.9 in /  1011.1 hPa Calm     61 % 0 in /  0.0 mm open2300-1.11 W/m2
21:12 47.8 °F /  8.8 °C 34.7 °F /  1.5 °C 29.8 in /  1010.7 hPa Calm     60 % 0 in /  0.0 mm open2300-1.11 W/m2
22:12 47.5 °F /  8.6 °C 35.4 °F /  1.9 °C 29.9 in /  1011.1 hPa Calm     63 % 0 in /  0.0 mm open2300-1.11 W/m2
23:12 48.4 °F /  9.1 °C 37.9 °F /  3.3 °C 29.9 in /  1011.1 hPa East 1.4 mph /  2.3 km/h 4.3 mph /  6.9 km/h 67 % 0 in /  0.0 mm open2300-1.11 W/m2
Observations météo à CASSIS
WU-History script by Weather Underground - 1 mb